Levante — 9HOB7 — position and weather

sailwx.info

Track history (hours):
 
Tides and Currents Weather Stations Pressure Air Temp Water Temp Dewpoint Dewpoint Depression Visibility Wind Speed Wind Dir Waves Ship Positions

Levante

Last reported at 2014-Sep-17 07:24 UTC. Time now 2014-Oct-02 04:28 UTC.
Position N 31°48' E 031°49'.
Warning: this ship's position is 14 days out of date.

Length 188.3 m; beam 28 m; draft 10.1 m.

Type: Ship. MMSI: 215440000.

Date/timePositionNaut miles runAvg speedWind from/ knotsBaromVisibWave heightAir tempDewpointWater temp
2014-Sep-17 07:24N 31°48' E 031°49'  
2014-Sep-14 05:22N 35°56' E 015°12'1011.8
2014-Sep-14 04:33N 35°60' E 015°01'1211.6
2014-Sep-14 03:33N 36°03' E 014°48'1211.6
2014-Sep-14 02:33N 36°07' E 014°34'1212.1
2014-Sep-14 01:32N 36°14' E 014°21'5112.4
2014-Sep-13 21:23N 36°35' E 013°23'911.6
2014-Sep-13 20:34N 36°39' E 013°12'1211.7
2014-Sep-13 19:33N 36°43' E 012°59'1211.6
2014-Sep-13 18:33N 36°46' E 012°45'1211.4
2014-Sep-13 17:29N 36°53' E 012°32'47211.8
2014-Sep-12 01:34N 36°54' E 002°41'1212.3
2014-Sep-12 00:33N 36°53' E 002°26'1212.2
2014-Sep-11 23:33N 36°51' E 002°11'1212.0
2014-Sep-11 22:33N 36°49' E 001°56'1211.9
2014-Sep-11 21:33N 36°48' E 001°42'1211.7
2014-Sep-11 20:33N 36°46' E 001°27'1211.7
2014-Sep-11 19:33N 36°44' E 001°13'1212.1
2014-Sep-11 18:33N 36°42' E 000°58'1312.2
2014-Sep-11 17:30N 36°41' E 000°42'1312.1
2014-Sep-11 16:27N 36°39' E 000°26'1111.8
2014-Sep-11 15:30N 36°38' E 000°12'1412.2
2014-Sep-11 14:20N 36°35' W 000°05'1012.4
2014-Sep-11 13:32N 36°34' W 000°17'4012.1
2014-Sep-11 10:12N 36°29' W 001°07'1211.6
2014-Sep-11 09:11N 36°27' W 001°22'911.4
2014-Sep-11 08:25N 36°25' W 001°33'2212.1
2014-Sep-11 06:33N 36°23' W 002°00'15912.9
2014-Sep-10 18:12N 35°59' W 005°15'914.1
2014-Sep-10 17:33N 35°57' W 005°26'  
Track history (hours):
 
Tides and Currents Weather Stations Pressure Air Temp Water Temp Dewpoint Dewpoint Depression Visibility Wind Speed Wind Dir Waves Ship Positions

Levante

Last reported at 2014-Sep-17 07:24 UTC. Time now 2014-Oct-02 04:28 UTC.
Position N 31°48' E 031°49'.
Warning: this ship's position is 14 days out of date.

Length 188.3 m; beam 28 m; draft 10.1 m.

Type: Ship. MMSI: 215440000.

Date/timePositionNaut miles runAvg speedWind from/ knotsBaromVisibWave heightAir tempDewpointWater temp
2014-Sep-17 07:24N 31°48' E 031°49'  
2014-Sep-14 05:22N 35°56' E 015°12'1011.8
2014-Sep-14 04:33N 35°60' E 015°01'1211.6
2014-Sep-14 03:33N 36°03' E 014°48'1211.6
2014-Sep-14 02:33N 36°07' E 014°34'1212.1
2014-Sep-14 01:32N 36°14' E 014°21'5112.4
2014-Sep-13 21:23N 36°35' E 013°23'911.6
2014-Sep-13 20:34N 36°39' E 013°12'1211.7
2014-Sep-13 19:33N 36°43' E 012°59'1211.6
2014-Sep-13 18:33N 36°46' E 012°45'1211.4
2014-Sep-13 17:29N 36°53' E 012°32'47211.8
2014-Sep-12 01:34N 36°54' E 002°41'1212.3
2014-Sep-12 00:33N 36°53' E 002°26'1212.2
2014-Sep-11 23:33N 36°51' E 002°11'1212.0
2014-Sep-11 22:33N 36°49' E 001°56'1211.9
2014-Sep-11 21:33N 36°48' E 001°42'1211.7
2014-Sep-11 20:33N 36°46' E 001°27'1211.7
2014-Sep-11 19:33N 36°44' E 001°13'1212.1
2014-Sep-11 18:33N 36°42' E 000°58'1312.2
2014-Sep-11 17:30N 36°41' E 000°42'1312.1
2014-Sep-11 16:27N 36°39' E 000°26'1111.8
2014-Sep-11 15:30N 36°38' E 000°12'1412.2
2014-Sep-11 14:20N 36°35' W 000°05'1012.4
2014-Sep-11 13:32N 36°34' W 000°17'4012.1
2014-Sep-11 10:12N 36°29' W 001°07'1211.6
2014-Sep-11 09:11N 36°27' W 001°22'911.4
2014-Sep-11 08:25N 36°25' W 001°33'2212.1
2014-Sep-11 06:33N 36°23' W 002°00'15912.9
2014-Sep-10 18:12N 35°59' W 005°15'914.1
2014-Sep-10 17:33N 35°57' W 005°26'  

Dump ship's entire track history